Time;durP1;ratioP1;P1;durP2;ratioP2;P2;SDS_P1;SDS_P2;PMS_P1;PMS_P2;Temp;Humidity;BMP_temperature;BMP_pressure;BME280_temperature;BME280_humidity;BME280_pressure;Samples;Min_cycle;Max_cycle;Signal;HPM_P1;HPM_P2
2023/03/22 00:02:12;;;;;;;11.20;5.47;;;10.30;99.90;;;;;;4987850;28;20231;-83
2023/03/22 00:04:41;;;;;;;12.50;5.63;;;10.40;99.90;;;;;;4977633;28;20215;-83
2023/03/22 00:07:09;;;;;;;14.67;5.63;;;10.40;99.90;;;;;;4984255;28;20301;-83
2023/03/22 00:09:36;;;;;;;11.13;5.60;;;10.40;99.90;;;;;;4977843;28;20220;-83
2023/03/22 00:12:03;;;;;;;15.90;6.23;;;10.40;99.90;;;;;;4987045;28;20200;-83
2023/03/22 00:14:30;;;;;;;12.00;4.93;;;10.40;99.90;;;;;;4981267;28;20235;-84
2023/03/22 00:16:57;;;;;;;18.10;5.40;;;10.40;99.90;;;;;;4985893;28;20205;-83
2023/03/22 00:19:25;;;;;;;13.33;5.47;;;10.40;99.90;;;;;;4976132;28;20322;-83
2023/03/22 00:21:52;;;;;;;11.67;5.03;;;10.40;99.90;;;;;;4982437;28;20261;-82
2023/03/22 00:24:20;;;;;;;13.27;5.10;;;10.40;99.90;;;;;;4981268;28;20214;-84
2023/03/22 00:26:46;;;;;;;12.20;4.73;;;10.40;99.90;;;;;;4983881;28;20206;-83
2023/03/22 00:29:13;;;;;;;12.90;5.33;;;10.30;99.90;;;;;;4979269;28;20645;-85
2023/03/22 00:31:40;;;;;;;15.40;5.53;;;10.40;99.90;;;;;;4985210;28;20213;-82
2023/03/22 00:34:07;;;;;;;15.47;6.30;;;10.30;99.90;;;;;;4983251;28;20636;-84
2023/03/22 00:36:36;;;;;;;13.53;4.90;;;10.30;99.90;;;;;;4983439;28;20751;-84
2023/03/22 00:39:03;;;;;;;13.37;5.10;;;10.40;99.90;;;;;;4983858;28;20215;-82
2023/03/22 00:41:31;;;;;;;12.57;5.13;;;10.40;99.90;;;;;;4976520;28;20744;-83
2023/03/22 00:43:58;;;;;;;13.77;5.50;;;10.40;99.90;;;;;;4982871;28;20210;-83
2023/03/22 00:46:25;;;;;;;10.97;5.60;;;10.40;99.90;;;;;;4987370;28;20741;-84
2023/03/22 00:48:52;;;;;;;11.23;4.77;;;10.30;99.90;;;;;;4980486;28;20233;-83
2023/03/22 00:51:19;;;;;;;14.23;5.50;;;10.30;99.90;;;;;;4981634;28;20306;-83
2023/03/22 00:53:51;;;;;;;12.40;4.80;;;10.30;99.90;;;;;;4980193;28;20218;-85
2023/03/22 00:56:18;;;;;;;10.93;4.60;;;10.30;99.90;;;;;;4985670;28;20212;-84
2023/03/22 00:58:45;;;;;;;10.53;4.40;;;10.30;99.90;;;;;;4981352;28;20375;-83
2023/03/22 01:01:14;;;;;;;10.37;4.20;;;10.30;99.90;;;;;;4985826;28;20308;-82
2023/03/22 01:03:42;;;;;;;13.73;4.53;;;10.30;99.90;;;;;;4993583;28;20218;-83
2023/03/22 01:06:10;;;;;;;17.90;4.50;;;10.20;99.90;;;;;;4982700;28;20218;-83
2023/03/22 01:08:37;;;;;;;8.37;4.13;;;10.20;99.90;;;;;;4987144;28;20576;-83
2023/03/22 01:11:06;;;;;;;28.37;5.70;;;10.20;99.90;;;;;;4982108;28;20328;-85
2023/03/22 01:13:36;;;;;;;9.87;3.97;;;10.20;99.90;;;;;;4977965;28;20311;-84
2023/03/22 01:16:05;;;;;;;10.83;3.73;;;10.10;99.90;;;;;;4985043;28;20286;-84
2023/03/22 01:18:31;;;;;;;11.07;4.40;;;10.10;99.90;;;;;;4983083;28;20258;-83
2023/03/22 01:20:59;;;;;;;11.73;4.50;;;10.10;99.90;;;;;;4979472;28;20218;-84
2023/03/22 01:23:26;;;;;;;12.83;3.73;;;10.10;99.90;;;;;;4980949;28;20232;-84
2023/03/22 01:25:52;;;;;;;11.83;3.87;;;10.10;99.90;;;;;;4981627;28;20207;-84
2023/03/22 01:28:19;;;;;;;12.80;4.00;;;10.10;99.90;;;;;;4993298;28;20207;-84
2023/03/22 01:30:46;;;;;;;9.53;4.13;;;10.10;99.90;;;;;;4994817;28;20759;-84
2023/03/22 01:33:13;;;;;;;11.77;3.93;;;10.10;99.90;;;;;;4988135;28;20221;-83
2023/03/22 01:35:40;;;;;;;8.30;3.90;;;10.20;99.90;;;;;;4983186;28;20660;-84
2023/03/22 01:38:06;;;;;;;11.80;4.37;;;10.20;99.90;;;;;;4989306;28;20663;-83
2023/03/22 01:40:34;;;;;;;13.17;3.90;;;10.20;99.90;;;;;;4982597;28;20214;-83
2023/03/22 01:43:01;;;;;;;13.30;4.00;;;10.20;99.90;;;;;;4977073;28;20203;-83
2023/03/22 01:45:42;;;;;;;11.20;3.40;;;10.20;99.90;;;;;;4982599;28;20725;-81
2023/03/22 01:48:14;;;;;;;8.77;3.53;;;10.20;99.90;;;;;;4986340;28;20223;-83
2023/03/22 01:50:46;;;;;;;9.67;3.53;;;10.20;99.90;;;;;;4982655;28;20266;-84
2023/03/22 01:53:14;;;;;;;9.47;3.57;;;10.30;99.90;;;;;;4993623;28;20195;-85
2023/03/22 01:55:41;;;;;;;13.67;3.87;;;10.20;99.90;;;;;;4986498;28;20204;-84
2023/03/22 01:58:11;;;;;;;9.07;4.20;;;10.20;99.90;;;;;;4986416;28;20194;-83
2023/03/22 02:00:37;;;;;;;11.03;3.57;;;10.20;99.90;;;;;;4989626;28;20198;-85
2023/03/22 02:03:06;;;;;;;11.17;3.50;;;10.20;99.90;;;;;;4983613;28;20313;-83
2023/03/22 02:05:34;;;;;;;9.20;3.00;;;10.20;99.90;;;;;;4989532;28;20636;-84
2023/03/22 02:08:01;;;;;;;10.13;3.13;;;10.20;99.90;;;;;;4983555;28;20215;-84
2023/03/22 02:10:29;;;;;;;11.70;3.50;;;10.20;99.90;;;;;;4988056;28;20253;-81
2023/03/22 02:13:41;;;;;;;9.47;3.00;;;10.20;99.90;;;;;;4990516;28;20241;-83
2023/03/22 02:16:21;;;;;;;8.43;3.37;;;10.20;99.90;;;;;;4959542;28;20214;-85
2023/03/22 02:19:14;;;;;;;9.77;3.57;;;10.20;99.90;;;;;;4984659;28;20226;-84
2023/03/22 02:22:08;;;;;;;8.43;3.40;;;10.20;99.90;;;;;;4983026;28;20215;-84
2023/03/22 02:24:54;;;;;;;9.47;3.10;;;10.20;99.90;;;;;;4982281;28;20208;-83
2023/03/22 02:27:47;;;;;;;9.17;2.97;;;10.20;99.90;;;;;;4990249;28;20289;-83
2023/03/22 02:30:44;;;;;;;6.27;3.30;;;10.20;99.90;;;;;;4979397;28;20225;-84
2023/03/22 02:33:20;;;;;;;8.20;3.30;;;10.30;99.90;;;;;;4978569;28;20232;-82
2023/03/22 02:36:20;;;;;;;11.73;3.87;;;10.30;99.90;;;;;;4985485;28;20241;-84
2023/03/22 02:39:07;;;;;;;11.23;3.90;;;10.30;99.90;;;;;;4984129;28;20714;-84
2023/03/22 02:41:58;;;;;;;7.63;5.30;;;10.30;99.90;;;;;;4984399;28;20211;-85
2023/03/22 02:44:41;;;;;;;11.83;4.73;;;10.30;99.90;;;;;;4981644;28;20286;-83
2023/03/22 02:47:28;;;;;;;8.70;4.20;;;10.30;99.90;;;;;;4985483;28;20214;-83
2023/03/22 02:50:14;;;;;;;9.93;4.23;;;10.30;99.90;;;;;;4985448;28;20238;-82
2023/03/22 02:52:49;;;;;;;9.90;4.30;;;10.30;99.90;;;;;;4984778;28;20245;-83
2023/03/22 02:55:40;;;;;;;10.70;4.50;;;10.30;99.90;;;;;;4971567;28;20217;-81
2023/03/22 02:58:21;;;;;;;12.47;4.53;;;10.30;99.90;;;;;;4988321;28;20243;-84
2023/03/22 03:00:52;;;;;;;10.17;4.87;;;10.30;99.90;;;;;;4993250;28;20237;-86
2023/03/22 03:03:23;;;;;;;16.13;5.03;;;10.30;99.90;;;;;;4985477;28;20216;-82
2023/03/22 03:05:54;;;;;;;11.17;5.73;;;10.30;99.90;;;;;;4983751;28;20217;-85
2023/03/22 03:08:24;;;;;;;13.70;5.70;;;10.30;99.90;;;;;;4991460;28;20209;-82
2023/03/22 03:10:53;;;;;;;13.27;6.90;;;10.40;99.90;;;;;;4982908;28;20624;-84
2023/03/22 03:13:20;;;;;;;16.83;7.40;;;10.40;99.90;;;;;;4983866;28;20238;-82
2023/03/22 03:15:53;;;;;;;18.50;7.40;;;10.40;99.90;;;;;;4984982;28;20272;-83
2023/03/22 03:18:25;;;;;;;16.57;8.27;;;10.40;99.90;;;;;;4981951;28;20211;-83
2023/03/22 03:21:01;;;;;;;19.90;8.63;;;10.40;99.90;;;;;;4983283;28;20219;-83
2023/03/22 03:23:36;;;;;;;15.80;8.67;;;10.40;99.90;;;;;;4986753;28;20290;-84
2023/03/22 03:26:23;;;;;;;16.50;9.57;;;10.40;99.90;;;;;;4983888;28;20668;-83
2023/03/22 03:29:30;;;;;;;18.23;9.40;;;10.40;99.90;;;;;;4989215;28;20252;-84
2023/03/22 03:32:03;;;;;;;19.07;10.50;;;10.50;99.90;;;;;;4987098;28;20230;-84
2023/03/22 03:34:51;;;;;;;17.83;10.30;;;10.50;99.90;;;;;;4983319;28;20207;-82
2023/03/22 03:37:28;;;;;;;20.83;11.63;;;10.50;99.90;;;;;;4983755;28;20311;-82
2023/03/22 03:40:04;;;;;;;20.43;11.33;;;10.50;99.90;;;;;;4984727;28;20199;-83
2023/03/22 03:42:31;;;;;;;25.33;12.97;;;10.50;99.90;;;;;;4979267;28;20210;-85
2023/03/22 03:44:59;;;;;;;23.80;12.70;;;10.50;99.90;;;;;;4983374;28;20325;-83
2023/03/22 03:47:28;;;;;;;25.13;12.43;;;10.60;99.90;;;;;;4979279;28;20224;-81
2023/03/22 03:49:55;;;;;;;21.77;12.60;;;10.60;99.90;;;;;;4985893;28;20532;-83
2023/03/22 03:52:23;;;;;;;23.90;12.67;;;10.60;99.90;;;;;;4981912;28;20211;-83
2023/03/22 03:54:51;;;;;;;27.77;15.30;;;10.70;99.90;;;;;;4988729;28;20201;-83
2023/03/22 03:57:18;;;;;;;23.47;13.67;;;10.70;99.90;;;;;;4986332;28;20238;-83
2023/03/22 03:59:44;;;;;;;22.67;13.07;;;10.70;99.90;;;;;;4979381;28;20211;-83
2023/03/22 04:02:11;;;;;;;21.30;12.30;;;10.70;99.90;;;;;;4978316;28;20682;-83
2023/03/22 04:04:38;;;;;;;23.13;11.67;;;10.70;99.90;;;;;;4982895;28;20218;-82
2023/03/22 04:07:06;;;;;;;19.40;11.80;;;10.80;99.90;;;;;;4982145;28;20251;-83
2023/03/22 04:09:36;;;;;;;19.23;12.40;;;10.80;99.90;;;;;;4983465;28;20307;-83
2023/03/22 04:12:03;;;;;;;26.40;11.47;;;10.80;99.90;;;;;;4989651;28;20234;-84
2023/03/22 04:14:30;;;;;;;18.60;11.03;;;10.80;99.90;;;;;;4981138;28;20223;-83
2023/03/22 04:16:57;;;;;;;19.07;11.97;;;10.80;99.90;;;;;;4984125;28;20387;-82
2023/03/22 04:19:24;;;;;;;19.50;10.60;;;10.80;99.90;;;;;;4981933;28;20572;-85
2023/03/22 04:21:51;;;;;;;21.97;11.23;;;10.80;99.90;;;;;;4978562;28;20294;-82
2023/03/22 04:24:20;;;;;;;21.57;11.43;;;10.80;99.90;;;;;;4981560;28;20219;-83
2023/03/22 04:26:47;;;;;;;19.67;11.07;;;10.80;99.90;;;;;;4987242;28;20741;-82
2023/03/22 04:29:14;;;;;;;21.33;11.63;;;10.80;99.90;;;;;;4980207;28;20220;-84
2023/03/22 04:31:41;;;;;;;20.40;11.63;;;10.80;99.90;;;;;;4980932;28;20242;-82
2023/03/22 04:34:09;;;;;;;17.80;10.70;;;10.80;99.90;;;;;;4976315;28;20243;-82
2023/03/22 04:36:38;;;;;;;17.23;11.00;;;10.80;99.90;;;;;;4987245;28;20209;-82
2023/03/22 04:39:09;;;;;;;16.90;10.57;;;10.90;99.90;;;;;;4980541;28;20294;-83
2023/03/22 04:41:36;;;;;;;18.43;10.47;;;10.80;99.90;;;;;;4982866;28;20204;-82
2023/03/22 04:44:04;;;;;;;19.23;10.90;;;10.80;99.90;;;;;;4991907;28;20258;-82
2023/03/22 04:46:33;;;;;;;18.50;10.17;;;10.80;99.90;;;;;;4978412;28;20206;-83
2023/03/22 04:49:02;;;;;;;20.80;11.17;;;10.80;99.90;;;;;;4978560;28;20220;-83
2023/03/22 04:51:30;;;;;;;21.47;11.33;;;10.70;99.90;;;;;;4981785;28;20237;-83
2023/03/22 04:53:57;;;;;;;16.90;10.47;;;10.80;99.90;;;;;;4985836;28;20219;-84
2023/03/22 04:56:26;;;;;;;16.43;10.57;;;10.70;99.90;;;;;;4984509;28;20207;-81
2023/03/22 04:58:54;;;;;;;18.40;10.17;;;10.80;99.90;;;;;;4979798;28;20642;-86
2023/03/22 05:01:21;;;;;;;20.73;10.83;;;10.80;99.90;;;;;;4987328;28;20206;-83
2023/03/22 05:03:48;;;;;;;17.67;10.77;;;10.80;99.90;;;;;;4991617;28;20258;-83
2023/03/22 05:06:15;;;;;;;15.43;9.77;;;10.80;99.90;;;;;;4984214;28;20533;-84
2023/03/22 05:08:44;;;;;;;18.53;10.90;;;10.80;99.90;;;;;;4979105;28;20223;-82
2023/03/22 05:11:14;;;;;;;17.40;10.40;;;10.80;99.90;;;;;;4989009;28;20222;-82
2023/03/22 05:13:40;;;;;;;19.20;9.90;;;10.80;99.90;;;;;;4991163;28;20287;-83
2023/03/22 05:16:09;;;;;;;20.67;10.07;;;10.80;99.90;;;;;;4984440;28;20243;-83
2023/03/22 05:18:41;;;;;;;17.77;9.90;;;10.70;99.90;;;;;;4982955;28;20318;-84
2023/03/22 05:21:16;;;;;;;19.70;10.00;;;10.70;99.90;;;;;;4984647;28;20219;-84
2023/03/22 05:23:44;;;;;;;15.07;9.53;;;10.70;99.90;;;;;;4981458;28;20230;-83
2023/03/22 05:26:14;;;;;;;18.00;8.87;;;10.70;99.90;;;;;;4987857;28;20243;-85
2023/03/22 05:28:42;;;;;;;13.90;8.97;;;10.80;99.90;;;;;;4987765;28;20242;-84
2023/03/22 05:31:10;;;;;;;19.00;9.07;;;10.80;99.90;;;;;;4982977;28;20322;-84
2023/03/22 05:33:38;;;;;;;18.20;8.70;;;10.70;99.90;;;;;;4983984;28;20691;-83
2023/03/22 05:36:05;;;;;;;13.27;8.13;;;10.70;99.90;;;;;;4987722;28;20775;-84
2023/03/22 05:38:32;;;;;;;14.27;8.97;;;10.70;99.90;;;;;;4983467;28;20525;-83
2023/03/22 05:40:59;;;;;;;15.57;9.00;;;10.70;99.90;;;;;;4986428;28;20311;-83
2023/03/22 05:43:25;;;;;;;15.30;7.67;;;10.80;99.90;;;;;;4984627;28;20255;-81
2023/03/22 05:45:52;;;;;;;17.97;8.40;;;10.80;99.90;;;;;;4985945;28;20338;-84
2023/03/22 05:48:19;;;;;;;17.27;7.57;;;10.70;99.90;;;;;;4983631;28;20258;-80
2023/03/22 05:50:46;;;;;;;13.70;7.20;;;10.70;99.90;;;;;;4987566;28;20287;-84
2023/03/22 05:53:13;;;;;;;16.90;8.23;;;10.80;99.90;;;;;;4989146;28;20198;-83
2023/03/22 05:55:39;;;;;;;10.17;6.53;;;10.80;99.90;;;;;;4987251;28;20259;-85
2023/03/22 05:58:07;;;;;;;14.97;7.03;;;10.70;99.90;;;;;;5032585;23;20234;-90
2023/03/22 06:00:36;;;;;;;17.60;7.10;;;10.70;99.90;;;;;;5050180;28;20205;-92
2023/03/22 06:03:07;;;;;;;13.57;6.93;;;10.70;99.90;;;;;;5068314;28;20223;-92
2023/03/22 06:05:36;;;;;;;10.40;6.43;;;10.60;99.90;;;;;;5070450;28;20232;-92
2023/03/22 06:08:08;;;;;;;13.03;7.20;;;10.60;99.90;;;;;;5071996;28;20265;-89
2023/03/22 06:10:41;;;;;;;13.47;7.17;;;10.60;99.90;;;;;;5068494;28;20220;-90
2023/03/22 06:13:10;;;;;;;16.03;6.47;;;10.60;99.90;;;;;;5055872;28;20557;-90
2023/03/22 06:15:38;;;;;;;12.60;6.13;;;10.50;99.90;;;;;;5057050;28;20188;-90
2023/03/22 06:18:05;;;;;;;9.70;6.47;;;10.50;99.90;;;;;;5072299;28;20221;-90
2023/03/22 06:20:37;;;;;;;16.23;6.70;;;10.50;99.90;;;;;;5051922;28;20221;-90
2023/03/22 06:23:08;;;;;;;11.30;6.80;;;10.50;99.90;;;;;;5054948;28;20548;-91
2023/03/22 06:25:36;;;;;;;16.50;6.57;;;10.40;99.90;;;;;;5069229;28;20216;-91
2023/03/22 06:28:14;;;;;;;13.33;6.27;;;10.40;99.90;;;;;;5068149;28;20217;-91
2023/03/22 06:31:07;;;;;;;13.80;6.37;;;10.40;99.90;;;;;;5053442;28;20259;-93
2023/03/22 06:33:53;;;;;;;15.23;5.93;;;10.50;99.90;;;;;;5071179;28;20323;-92
2023/03/22 06:36:30;;;;;;;12.67;7.17;;;10.50;99.90;;;;;;5058011;28;20205;-87
2023/03/22 06:38:59;;;;;;;13.00;5.90;;;10.50;99.90;;;;;;5060081;28;20208;-92
2023/03/22 06:41:46;;;;;;;11.90;5.60;;;10.50;99.90;;;;;;5058700;28;20261;-91
2023/03/22 06:44:27;;;;;;;12.17;6.10;;;10.60;99.90;;;;;;5070701;28;20212;-91
2023/03/22 06:47:23;;;;;;;10.83;5.27;;;10.60;99.90;;;;;;5069312;28;20220;-94
2023/03/22 06:50:07;;;;;;;10.70;5.20;;;10.70;99.90;;;;;;5048527;28;20549;-88
2023/03/22 06:52:35;;;;;;;12.00;5.23;;;10.80;99.90;;;;;;5049072;28;20252;-88
2023/03/22 06:55:04;;;;;;;12.20;5.57;;;10.90;99.90;;;;;;5046538;28;20304;-89
2023/03/22 06:57:34;;;;;;;13.60;5.07;;;11.00;99.90;;;;;;5042529;28;20218;-89
2023/03/22 07:00:15;;;;;;;10.47;4.90;;;11.00;99.90;;;;;;5042292;28;20264;-93
2023/03/22 07:02:45;;;;;;;11.47;4.63;;;11.40;99.90;;;;;;5047258;28;20284;-91
2023/03/22 07:05:21;;;;;;;7.13;4.03;;;11.90;99.90;;;;;;5047656;28;20308;-90
2023/03/22 07:07:54;;;;;;;14.53;4.30;;;11.90;99.90;;;;;;5062937;28;20205;-91
2023/03/22 07:10:22;;;;;;;11.00;4.03;;;14.20;99.90;;;;;;5046658;28;20214;-90
2023/03/22 07:12:58;;;;;;;10.73;3.87;;;14.10;99.90;;;;;;5066377;28;20300;-92
2023/03/22 07:15:32;;;;;;;7.97;3.43;;;14.30;99.90;;;;;;5064898;28;20193;-90
2023/03/22 07:18:03;;;;;;;10.07;3.90;;;14.00;99.90;;;;;;5062800;28;20224;-91
2023/03/22 07:20:35;;;;;;;9.47;4.03;;;;;;;;;;5051386;28;20308;-91
2023/03/22 07:23:14;;;;;;;8.97;3.80;;;13.20;99.90;;;;;;5052787;28;20197;-90
2023/03/22 07:25:46;;;;;;;11.43;4.50;;;13.00;99.90;;;;;;5041756;28;20205;-91
2023/03/22 07:28:19;;;;;;;9.67;3.87;;;12.80;99.90;;;;;;5058045;28;20235;-91
2023/03/22 07:30:47;;;;;;;9.17;3.80;;;12.70;99.90;;;;;;5061983;28;20236;-93
2023/03/22 07:33:15;;;;;;;8.40;4.03;;;12.70;99.90;;;;;;5059858;28;20244;-89
2023/03/22 07:35:42;;;;;;;10.07;3.43;;;12.90;99.90;;;;;;5058763;28;20231;-91
2023/03/22 07:38:12;;;;;;;9.57;3.67;;;12.60;99.90;;;;;;5060409;28;20270;-90
2023/03/22 07:40:41;;;;;;;11.97;3.43;;;12.50;99.90;;;;;;5051100;28;20324;-90
2023/03/22 07:43:10;;;;;;;6.20;3.70;;;12.40;99.90;;;;;;5054427;28;20248;-90
2023/03/22 07:45:40;;;;;;;7.37;3.63;;;12.40;99.90;;;;;;5052912;28;20220;-91
2023/03/22 07:48:11;;;;;;;11.17;3.70;;;12.30;99.90;;;;;;5052459;28;20228;-91
2023/03/22 07:50:41;;;;;;;9.27;3.67;;;12.30;99.90;;;;;;5053405;28;20787;-92
2023/03/22 07:53:21;;;;;;;8.07;3.77;;;12.20;99.90;;;;;;5052133;28;20221;-91
2023/03/22 07:55:58;;;;;;;9.67;3.47;;;12.10;99.90;;;;;;5043436;28;20299;-89
2023/03/22 07:58:25;;;;;;;6.47;3.40;;;12.10;99.90;;;;;;5053681;28;20256;-87
2023/03/22 08:00:54;;;;;;;7.70;3.30;;;12.10;99.90;;;;;;5056957;28;20205;-90
2023/03/22 08:03:23;;;;;;;11.13;3.47;;;12.10;99.90;;;;;;5043156;28;20206;-90
2023/03/22 08:05:57;;;;;;;8.00;3.73;;;12.10;99.90;;;;;;5061068;28;20237;-90
2023/03/22 08:08:26;;;;;;;11.93;3.73;;;12.10;99.90;;;;;;5069344;28;20208;-90
2023/03/22 08:10:53;;;;;;;13.00;3.83;;;12.00;99.90;;;;;;5074823;28;20239;-89
2023/03/22 08:13:27;;;;;;;9.13;4.43;;;12.10;99.90;;;;;;5060443;28;20228;-88
2023/03/22 08:15:55;;;;;;;13.87;4.47;;;12.10;99.90;;;;;;5075180;28;20210;-89
2023/03/22 08:18:24;;;;;;;7.37;3.00;;;12.10;99.90;;;;;;5068545;28;20216;-89
2023/03/22 08:20:58;;;;;;;8.63;3.23;;;12.00;99.90;;;;;;5057516;28;20678;-90
2023/03/22 08:23:27;;;;;;;8.73;3.47;;;12.20;99.90;;;;;;5045035;28;20284;-90
2023/03/22 08:26:09;;;;;;;12.30;3.53;;;12.30;99.90;;;;;;5078519;28;20202;-89
2023/03/22 08:28:37;;;;;;;9.30;3.30;;;12.50;99.90;;;;;;5066311;28;20215;-89
2023/03/22 08:31:16;;;;;;;7.17;3.10;;;12.60;99.90;;;;;;5069631;28;20213;-90
2023/03/22 08:33:45;;;;;;;9.60;3.53;;;12.70;99.90;;;;;;5061160;28;20213;-90
2023/03/22 08:36:20;;;;;;;12.30;3.80;;;12.80;99.90;;;;;;5071703;28;20209;-89
2023/03/22 08:38:51;;;;;;;6.77;3.50;;;12.80;99.90;;;;;;5065261;28;20245;-89
2023/03/22 08:41:19;;;;;;;14.30;3.93;;;12.90;99.90;;;;;;5053474;28;20844;-90
2023/03/22 08:43:47;;;;;;;11.50;3.70;;;12.80;99.90;;;;;;5061176;28;20206;-89
2023/03/22 08:46:18;;;;;;;13.20;4.30;;;12.80;99.90;;;;;;5067782;28;20212;-89
2023/03/22 08:48:49;;;;;;;10.53;3.70;;;12.70;99.90;;;;;;5068926;28;20197;-90
2023/03/22 08:51:23;;;;;;;10.93;3.70;;;12.80;99.90;;;;;;5040229;28;20217;-90
2023/03/22 08:54:00;;;;;;;10.77;3.63;;;12.90;99.90;;;;;;5053077;28;20186;-89
2023/03/22 08:56:27;;;;;;;11.57;3.90;;;12.80;99.90;;;;;;5060560;28;20201;-91
2023/03/22 08:58:55;;;;;;;7.13;4.00;;;12.90;99.90;;;;;;5058881;28;20237;-89
2023/03/22 09:01:27;;;;;;;8.57;4.27;;;13.00;99.90;;;;;;5053404;28;20224;-89
2023/03/22 09:03:55;;;;;;;9.07;4.10;;;12.90;99.90;;;;;;5053269;28;20303;-89
2023/03/22 09:06:24;;;;;;;10.63;4.17;;;12.90;99.90;;;;;;5077941;28;20215;-91
2023/03/22 09:08:54;;;;;;;8.77;4.20;;;13.00;99.90;;;;;;5056535;28;20223;-89
2023/03/22 09:11:22;;;;;;;12.00;4.53;;;13.00;99.90;;;;;;5039180;28;20213;-90
2023/03/22 09:13:50;;;;;;;10.63;3.80;;;13.00;99.90;;;;;;5051065;28;20228;-90
2023/03/22 09:16:18;;;;;;;8.90;4.03;;;13.00;99.90;;;;;;5048244;28;20659;-90
2023/03/22 09:18:45;;;;;;;11.93;4.30;;;13.00;99.90;;;;;;5045735;28;20213;-88
2023/03/22 09:21:12;;;;;;;8.57;3.40;;;13.10;99.90;;;;;;5046132;28;20240;-88
2023/03/22 09:23:41;;;;;;;13.10;3.80;;;13.10;99.90;;;;;;5052696;28;20205;-88
2023/03/22 09:26:15;;;;;;;15.90;4.00;;;13.20;99.90;;;;;;5053827;28;20206;-90
2023/03/22 09:28:44;;;;;;;10.93;3.63;;;13.20;99.90;;;;;;5047382;28;20194;-89
2023/03/22 09:31:11;;;;;;;8.90;3.40;;;13.20;99.90;;;;;;5041759;28;20221;-88
2023/03/22 09:33:44;;;;;;;12.83;4.30;;;13.20;99.90;;;;;;5057602;28;20220;-89
2023/03/22 09:36:13;;;;;;;10.80;3.30;;;13.20;99.90;;;;;;5044593;28;20209;-88
2023/03/22 09:38:40;;;;;;;10.40;3.60;;;13.30;99.90;;;;;;5040660;28;20198;-90
2023/03/22 09:41:16;;;;;;;9.43;3.40;;;13.20;99.90;;;;;;5053953;28;20261;-90
2023/03/22 09:43:53;;;;;;;13.50;3.87;;;13.10;99.90;;;;;;5057729;28;20209;-87
2023/03/22 09:46:34;;;;;;;8.27;3.17;;;13.10;99.90;;;;;;5047762;28;20275;-87
2023/03/22 09:49:18;;;;;;;9.63;3.27;;;13.00;99.90;;;;;;5057057;28;20227;-88
2023/03/22 09:51:49;;;;;;;9.73;3.40;;;13.00;99.90;;;;;;5055470;28;20275;-90
2023/03/22 09:54:39;;;;;;;11.80;3.20;;;12.90;99.90;;;;;;5058587;28;20303;-89
2023/03/22 09:57:31;;;;;;;9.67;3.50;;;13.00;99.90;;;;;;5058530;28;20229;-89
2023/03/22 10:00:15;;;;;;;9.40;3.00;;;13.00;99.90;;;;;;5053567;28;20264;-88
2023/03/22 10:03:25;;;;;;;5.87;3.10;;;12.90;99.90;;;;;;5066355;28;20728;-90
2023/03/22 10:06:19;;;;;;;9.20;2.90;;;12.90;99.90;;;;;;5060309;28;20221;-88
2023/03/22 10:09:13;;;;;;;13.57;4.30;;;12.90;99.90;;;;;;5047859;28;20201;-89
2023/03/22 10:12:07;;;;;;;11.27;2.57;;;12.90;99.90;;;;;;5062016;28;20221;-89
2023/03/22 10:14:47;;;;;;;8.70;3.00;;;12.80;99.90;;;;;;5051718;28;20197;-90
2023/03/22 10:17:30;;;;;;;10.93;3.27;;;12.80;99.90;;;;;;5057728;28;20201;-88
2023/03/22 10:20:20;;;;;;;9.40;3.40;;;12.70;99.90;;;;;;5049547;28;20210;-91
2023/03/22 10:22:49;;;;;;;14.33;4.90;;;12.70;99.90;;;;;;5057334;28;20239;-89
2023/03/22 10:25:22;;;;;;;10.20;3.53;;;12.60;99.90;;;;;;5058549;28;20202;-88
2023/03/22 10:27:52;;;;;;;11.23;3.73;;;12.50;99.90;;;;;;5056421;28;20205;-88
2023/03/22 10:30:26;;;;;;;11.60;3.93;;;12.30;99.90;;;;;;5049930;28;20275;-87
2023/03/22 10:33:01;;;;;;;12.00;4.17;;;12.40;99.90;;;;;;5047029;28;20264;-88
2023/03/22 10:35:29;;;;;;;14.87;4.77;;;12.20;99.90;;;;;;5043609;28;20209;-90
2023/03/22 10:38:00;;;;;;;7.70;3.50;;;12.10;99.90;;;;;;5056799;28;20269;-89
2023/03/22 10:40:33;;;;;;;9.17;3.70;;;12.20;99.90;;;;;;5061379;28;20201;-88
2023/03/22 10:43:09;;;;;;;11.27;4.10;;;12.10;99.90;;;;;;5049632;28;20216;-91
2023/03/22 10:45:37;;;;;;;10.37;3.77;;;12.10;99.90;;;;;;5072223;28;20197;-90
2023/03/22 10:48:33;;;;;;;10.93;3.60;;;12.20;99.90;;;;;;5085068;28;20221;-89
2023/03/22 10:51:02;;;;;;;11.50;3.90;;;12.20;99.90;;;;;;5060933;28;20201;-90
2023/03/22 10:53:44;;;;;;;11.43;3.80;;;12.20;99.90;;;;;;5071822;28;20215;-91
2023/03/22 10:56:18;;;;;;;11.23;4.73;;;12.30;99.90;;;;;;5073098;28;20197;-91
2023/03/22 10:58:48;;;;;;;7.57;3.97;;;12.30;99.90;;;;;;5072944;28;20224;-92
2023/03/22 11:01:36;;;;;;;9.20;3.73;;;12.40;99.90;;;;;;5072086;28;20209;-88
2023/03/22 11:04:03;;;;;;;12.90;3.90;;;12.20;99.90;;;;;;5070358;28;20232;-90
2023/03/22 11:06:49;;;;;;;9.73;3.80;;;12.20;99.90;;;;;;5056806;28;20271;-89
2023/03/22 11:09:27;;;;;;;11.23;3.77;;;12.20;99.90;;;;;;5061842;28;20207;-90
2023/03/22 11:12:01;;;;;;;7.97;3.70;;;12.20;99.90;;;;;;5062009;28;20212;-90
2023/03/22 11:14:30;;;;;;;10.77;4.03;;;12.20;99.90;;;;;;5061380;28;20723;-90
2023/03/22 11:17:09;;;;;;;10.80;4.00;;;12.20;99.90;;;;;;5055824;28;20227;-88
2023/03/22 11:19:54;;;;;;;11.13;4.10;;;12.20;99.90;;;;;;5065909;28;20200;-91
2023/03/22 11:22:43;;;;;;;8.57;4.37;;;12.10;99.90;;;;;;5049413;28;20213;-88
2023/03/22 11:25:34;;;;;;;11.63;4.23;;;12.10;99.90;;;;;;5047109;28;20198;-90
2023/03/22 11:28:14;;;;;;;11.00;4.43;;;12.10;99.90;;;;;;5045836;28;20226;-88
2023/03/22 11:31:02;;;;;;;8.83;4.03;;;12.00;99.90;;;;;;5055511;28;20251;-88
2023/03/22 11:34:00;;;;;;;9.17;3.87;;;12.00;99.90;;;;;;5053408;28;20240;-90
2023/03/22 11:36:30;;;;;;;9.43;4.43;;;12.00;99.90;;;;;;5037342;28;20268;-89
2023/03/22 11:39:16;;;;;;;10.47;3.80;;;12.00;99.90;;;;;;5064264;28;20201;-88
2023/03/22 11:41:45;;;;;;;13.80;4.77;;;12.00;99.90;;;;;;5048551;28;20201;-88
2023/03/22 11:44:16;;;;;;;11.93;4.97;;;12.00;99.90;;;;;;5052359;28;20217;-86
2023/03/22 11:46:56;;;;;;;11.67;4.77;;;12.00;99.90;;;;;;5052422;28;20189;-86
2023/03/22 11:49:34;;;;;;;13.10;4.13;;;12.00;99.90;;;;;;5061720;28;21057;-85
2023/03/22 11:52:15;;;;;;;8.60;3.70;;;12.10;99.90;;;;;;5068828;28;20231;-89
2023/03/22 11:54:45;;;;;;;11.67;4.83;;;12.00;99.90;;;;;;5066947;28;20197;-90
2023/03/22 11:57:18;;;;;;;7.97;4.33;;;12.30;99.90;;;;;;5054436;28;20186;-90
2023/03/22 11:59:56;;;;;;;11.10;3.77;;;12.20;99.90;;;;;;5061939;28;20280;-88
2023/03/22 12:02:47;;;;;;;8.60;3.93;;;12.20;99.90;;;;;;5064647;28;20200;-90
2023/03/22 12:05:38;;;;;;;7.90;3.77;;;12.30;99.90;;;;;;5060829;28;20217;-89
2023/03/22 12:08:24;;;;;;;7.60;3.73;;;12.40;99.90;;;;;;5060086;28;20197;-90
2023/03/22 12:11:04;;;;;;;7.83;3.97;;;12.30;99.90;;;;;;5060350;28;20197;-90
2023/03/22 12:13:47;;;;;;;8.67;3.60;;;12.30;99.90;;;;;;5059775;28;20224;-90
2023/03/22 12:16:21;;;;;;;9.37;3.47;;;12.20;99.90;;;;;;5052450;28;20197;-88
2023/03/22 12:19:23;;;;;;;5.57;3.00;;;12.20;99.90;;;;;;5058952;28;20193;-89
2023/03/22 12:21:50;;;;;;;6.63;2.83;;;12.10;99.90;;;;;;5031343;28;20212;-89
2023/03/22 12:24:31;;;;;;;6.53;3.00;;;12.10;99.90;;;;;;5059406;28;20211;-89
2023/03/22 12:27:11;;;;;;;5.27;2.60;;;12.10;99.90;;;;;;5057721;28;20196;-90
2023/03/22 12:29:55;;;;;;;5.80;3.20;;;12.10;99.90;;;;;;5060768;28;20205;-92
2023/03/22 12:32:31;;;;;;;8.13;3.63;;;12.10;99.90;;;;;;5060626;28;20668;-87
2023/03/22 12:35:03;;;;;;;5.33;3.10;;;12.10;99.90;;;;;;5046623;28;20201;-89
2023/03/22 12:37:46;;;;;;;10.10;3.20;;;12.10;99.90;;;;;;5048912;28;20201;-89
2023/03/22 12:40:24;;;;;;;8.57;3.13;;;12.10;99.90;;;;;;5058891;28;20605;-89
2023/03/22 12:43:16;;;;;;;5.30;2.93;;;12.10;99.90;;;;;;5058839;28;20231;-88
2023/03/22 12:45:58;;;;;;;6.17;2.60;;;12.10;99.90;;;;;;5054985;28;20231;-89
2023/03/22 12:48:54;;;;;;;6.73;3.50;;;12.20;99.90;;;;;;5051432;28;20210;-91
2023/03/22 12:51:22;;;;;;;8.83;4.90;;;12.20;99.90;;;;;;5038522;28;20718;-89
2023/03/22 12:53:55;;;;;;;7.40;3.13;;;12.10;99.90;;;;;;5046948;28;20213;-89
2023/03/22 12:56:31;;;;;;;5.63;3.27;;;12.30;99.90;;;;;;5058848;28;20200;-89
2023/03/22 12:59:03;;;;;;;5.90;3.30;;;12.20;99.90;;;;;;5044620;28;20312;-89
2023/03/22 13:02:34;;;;;;;5.50;3.33;;;12.20;99.90;;;;;;5047791;28;20287;-87
2023/03/22 13:05:08;;;;;;;8.57;3.47;;;12.20;99.90;;;;;;5035026;28;20286;-88
2023/03/22 13:07:50;;;;;;;7.90;3.23;;;12.20;99.90;;;;;;5045789;28;20224;-85
2023/03/22 13:10:33;;;;;;;7.07;3.33;;;12.20;99.90;;;;;;5052243;28;20205;-88
2023/03/22 13:13:23;;;;;;;9.27;3.80;;;12.20;99.90;;;;;;5042970;28;20316;-86